Warning: file_get_contents(/server/czul.ca/includes/../prompts/prompts.aboutus.json): failed to open stream: No such file or directory in /server/czul.ca/includes/prompts.inc.php on line 8

Warning: Invalid argument supplied for foreach() in /server/czul.ca/includes/prompts.inc.php on line 9

Warning: file_get_contents(/server/czul.ca/includes/../prompts/prompts.aboutus.json): failed to open stream: No such file or directory in /server/czul.ca/includes/prompts.inc.php on line 8

Warning: Invalid argument supplied for foreach() in /server/czul.ca/includes/prompts.inc.php on line 9

Warning: file_get_contents(/server/czul.ca/includes/../prompts/prompts.aboutus.json): failed to open stream: No such file or directory in /server/czul.ca/includes/prompts.inc.php on line 8

Warning: Invalid argument supplied for foreach() in /server/czul.ca/includes/prompts.inc.php on line 9
CZUL - FIR virtuelle de Montréal

CYHA

Quaqtaq Airport

{{ICAO_CODE}} CYHA
{{IATA_CODE}} YQC
{{NAME}} Quaqtaq Airport
{{LOCATION}} Quaqtaq, Quebec, CA
{{ELEVATION}} 106 {{FEET}} / 32.3 {{METERS}}
{{LATITUDE}} 61.04638889
{{LONGITUDE}} -69.61777778
{{METAR}} CYHA 162100Z 09025G31KT 1/2SM -SN BLSN OVC007 M03/M04 A2982 RMK BLSN4ST4 LAST OBS/NEXT 171200 UTC SLP103
{{EXTRA_INFO}} {{DISPLAY_NOTAMS}}
{{DISPLAY_CHARTS}}
{{RUNWAY}} {{LENGTH}} {{WIDTH}} {{SURFACE}} {{ELEVATION}}
36 3520 ft 100 ft GRAVEL 104 ft
18 3520 ft 100 ft GRAVEL 95 ft